Newhall, IA

5:50 PM CST on February 28, 2015 (GMT -0600)
The Eastern Iowa Airport | Change Station
CLOSE
Current Station
Airport
Location: Cedar Rapids,
Elevation: 866 ft
Nearby Weather Stations

Elev 866 ft 41.88 °N, 91.71 °W | Updated 38 minutes ago

Partly Cloudy
Partly Cloudy
16 °F
Feels Like 4 °F
N
10
Wind Variable Wind from SSE

Today
High -- | Low -- °F
--% Chance of Precip.
Yesterday
High -- | Low -- °F
Precip. -- in
6:44 AM 5:56 PM
Waxing Gibbous, 81% visible
Pressure 30.45 in
Visibility 3.0 miles
Clouds Mostly Cloudy 3400 ft
Overcast 4900 ft
Windchill 4 °F
Dew Point 7 °F
Humidity 68%
Rainfall 0.00 in
Snow Depth Not available.
UV 0 out of 12
Pollen .50 out of 12
Air Quality Not available.
Flu Activity Not available.
SPECI KCID 282312Z 16009KT 3SM -SN BKN034 OVC049 M09/M14 A3045 RMK AO2 SNB10 P0000 T10891139

More Conditions Fewer Conditions

Pressure 30.45 in
Visibility 3.0 miles
Clouds Mostly Cloudy 3400 ft
Overcast 4900 ft
Windchill 4 °F
Dew Point 7 °F
Humidity 68%
Rainfall 0.00 in
Snow Depth Not available.
UV 0 out of 12
Pollen .50 out of 12
Air Quality Not available.
Flu Activity Not available.
SPECI KCID 282312Z 16009KT 3SM -SN BKN034 OVC049 M09/M14 A3045 RMK AO2 SNB10 P0000 T10891139

More Conditions Fewer Conditions

10-Day Weather Forecast

Almanac

Astronomy

Feb. 28, 2015 Rise Set
Actual Time
Civil Twilight
Nautical Twilight
Astronomical Twilight
Moon
Length of Visible Light
Length of Day
Tomorrow will be .
, % of the Moon is Illuminated

Today's Extremes

State Highs State Lows

Community

WunderPhotos

Upload Photos

1,801,176 photos uploaded!

WunderBlogs® & News

Nearby

Air Quality

  Air Quality AQ Index Pollutant
Not available.

Snow Depth

Station Depth Elevation

Earthquake Activity

City Distance Mag. Time & Date
Minimum magnitude displayed is 2.5.

Coastal Water Temperatures

Place Temperature

Nearby Weather Stations